sensor_id;sensor_type;location;lat;lon;timestamp;P1;durP1;ratioP1;P2;durP2;ratioP2
9888;SDS011;4983;42.112;24.738;2023-06-05T00:00:15;4.20;;;2.50;;
9888;SDS011;4983;42.112;24.738;2023-06-05T00:02:46;3.97;;;2.90;;
9888;SDS011;4983;42.112;24.738;2023-06-05T00:05:12;4.67;;;2.77;;
9888;SDS011;4983;42.112;24.738;2023-06-05T00:07:40;4.37;;;2.57;;
9888;SDS011;4983;42.112;24.738;2023-06-05T00:10:07;3.67;;;2.67;;
9888;SDS011;4983;42.112;24.738;2023-06-05T00:12:36;4.87;;;3.30;;
9888;SDS011;4983;42.112;24.738;2023-06-05T00:15:03;5.63;;;3.17;;
9888;SDS011;4983;42.112;24.738;2023-06-05T00:17:30;6.03;;;3.10;;
9888;SDS011;4983;42.112;24.738;2023-06-05T00:19:56;4.53;;;2.87;;
9888;SDS011;4983;42.112;24.738;2023-06-05T00:22:25;4.53;;;3.17;;
9888;SDS011;4983;42.112;24.738;2023-06-05T00:24:52;3.93;;;2.67;;
9888;SDS011;4983;42.112;24.738;2023-06-05T00:27:19;3.40;;;2.70;;
9888;SDS011;4983;42.112;24.738;2023-06-05T00:29:47;5.40;;;2.63;;
9888;SDS011;4983;42.112;24.738;2023-06-05T00:32:13;3.47;;;2.30;;
9888;SDS011;4983;42.112;24.738;2023-06-05T00:34:40;3.73;;;2.77;;
9888;SDS011;4983;42.112;24.738;2023-06-05T00:37:07;6.47;;;3.70;;
9888;SDS011;4983;42.112;24.738;2023-06-05T00:39:33;5.63;;;3.20;;
9888;SDS011;4983;42.112;24.738;2023-06-05T00:42:00;6.20;;;3.20;;
9888;SDS011;4983;42.112;24.738;2023-06-05T00:44:26;4.53;;;3.20;;
9888;SDS011;4983;42.112;24.738;2023-06-05T00:46:54;4.80;;;2.73;;
9888;SDS011;4983;42.112;24.738;2023-06-05T00:49:21;3.43;;;2.70;;
9888;SDS011;4983;42.112;24.738;2023-06-05T00:51:48;3.63;;;2.57;;
9888;SDS011;4983;42.112;24.738;2023-06-05T00:54:15;2.70;;;2.40;;
9888;SDS011;4983;42.112;24.738;2023-06-05T00:56:42;3.60;;;2.20;;
9888;SDS011;4983;42.112;24.738;2023-06-05T00:59:09;5.53;;;2.03;;
9888;SDS011;4983;42.112;24.738;2023-06-05T01:01:37;3.97;;;2.10;;
9888;SDS011;4983;42.112;24.738;2023-06-05T01:04:07;3.50;;;1.77;;
9888;SDS011;4983;42.112;24.738;2023-06-05T01:06:33;3.20;;;1.63;;
9888;SDS011;4983;42.112;24.738;2023-06-05T01:09:01;2.40;;;1.67;;
9888;SDS011;4983;42.112;24.738;2023-06-05T01:11:32;2.77;;;1.87;;
9888;SDS011;4983;42.112;24.738;2023-06-05T01:14:02;2.33;;;1.60;;
9888;SDS011;4983;42.112;24.738;2023-06-05T01:16:33;2.93;;;1.70;;
9888;SDS011;4983;42.112;24.738;2023-06-05T01:19:00;2.47;;;1.50;;
9888;SDS011;4983;42.112;24.738;2023-06-05T01:21:29;2.10;;;1.40;;
9888;SDS011;4983;42.112;24.738;2023-06-05T01:23:58;1.70;;;1.40;;
9888;SDS011;4983;42.112;24.738;2023-06-05T01:26:27;3.80;;;1.70;;
9888;SDS011;4983;42.112;24.738;2023-06-05T01:28:57;3.67;;;1.47;;
9888;SDS011;4983;42.112;24.738;2023-06-05T01:31:25;1.93;;;1.50;;
9888;SDS011;4983;42.112;24.738;2023-06-05T01:33:54;1.87;;;1.40;;
9888;SDS011;4983;42.112;24.738;2023-06-05T01:36:22;2.03;;;1.53;;
9888;SDS011;4983;42.112;24.738;2023-06-05T01:38:49;5.10;;;1.77;;
9888;SDS011;4983;42.112;24.738;2023-06-05T01:41:18;5.27;;;1.60;;
9888;SDS011;4983;42.112;24.738;2023-06-05T01:43:45;2.20;;;1.60;;
9888;SDS011;4983;42.112;24.738;2023-06-05T01:46:12;3.73;;;1.60;;
9888;SDS011;4983;42.112;24.738;2023-06-05T01:48:40;3.13;;;1.73;;
9888;SDS011;4983;42.112;24.738;2023-06-05T01:51:08;3.37;;;1.90;;
9888;SDS011;4983;42.112;24.738;2023-06-05T01:53:34;2.40;;;1.67;;
9888;SDS011;4983;42.112;24.738;2023-06-05T01:56:01;6.17;;;2.00;;
9888;SDS011;4983;42.112;24.738;2023-06-05T01:58:29;3.63;;;1.73;;
9888;SDS011;4983;42.112;24.738;2023-06-05T02:00:56;2.37;;;1.50;;
9888;SDS011;4983;42.112;24.738;2023-06-05T02:03:23;1.77;;;1.40;;
9888;SDS011;4983;42.112;24.738;2023-06-05T02:05:50;3.97;;;1.60;;
9888;SDS011;4983;42.112;24.738;2023-06-05T02:08:18;2.50;;;1.57;;
9888;SDS011;4983;42.112;24.738;2023-06-05T02:10:47;4.20;;;1.63;;
9888;SDS011;4983;42.112;24.738;2023-06-05T02:13:14;2.37;;;1.70;;
9888;SDS011;4983;42.112;24.738;2023-06-05T02:15:43;1.70;;;1.33;;
9888;SDS011;4983;42.112;24.738;2023-06-05T02:18:10;3.83;;;1.80;;
9888;SDS011;4983;42.112;24.738;2023-06-05T02:20:40;2.17;;;1.23;;
9888;SDS011;4983;42.112;24.738;2023-06-05T02:23:07;2.10;;;1.40;;
9888;SDS011;4983;42.112;24.738;2023-06-05T02:25:33;3.83;;;1.57;;
9888;SDS011;4983;42.112;24.738;2023-06-05T02:28:01;2.10;;;1.27;;
9888;SDS011;4983;42.112;24.738;2023-06-05T02:30:27;6.33;;;2.10;;
9888;SDS011;4983;42.112;24.738;2023-06-05T02:32:55;2.93;;;2.23;;
9888;SDS011;4983;42.112;24.738;2023-06-05T02:35:26;3.63;;;2.70;;
9888;SDS011;4983;42.112;24.738;2023-06-05T02:37:53;4.23;;;2.80;;
9888;SDS011;4983;42.112;24.738;2023-06-05T02:40:21;5.63;;;3.07;;
9888;SDS011;4983;42.112;24.738;2023-06-05T02:42:48;3.77;;;2.73;;
9888;SDS011;4983;42.112;24.738;2023-06-05T02:45:15;6.37;;;2.87;;
9888;SDS011;4983;42.112;24.738;2023-06-05T02:47:42;4.07;;;2.70;;
9888;SDS011;4983;42.112;24.738;2023-06-05T02:50:11;2.60;;;1.90;;
9888;SDS011;4983;42.112;24.738;2023-06-05T02:52:37;2.70;;;1.90;;
9888;SDS011;4983;42.112;24.738;2023-06-05T02:55:05;2.00;;;1.50;;
9888;SDS011;4983;42.112;24.738;2023-06-05T02:57:33;2.57;;;1.80;;
9888;SDS011;4983;42.112;24.738;2023-06-05T03:00:07;2.53;;;1.63;;
9888;SDS011;4983;42.112;24.738;2023-06-05T03:02:34;1.93;;;1.60;;
9888;SDS011;4983;42.112;24.738;2023-06-05T03:05:03;2.50;;;1.40;;
9888;SDS011;4983;42.112;24.738;2023-06-05T03:07:31;2.40;;;1.50;;
9888;SDS011;4983;42.112;24.738;2023-06-05T03:10:00;3.40;;;1.70;;
9888;SDS011;4983;42.112;24.738;2023-06-05T03:12:27;1.30;;;1.20;;
9888;SDS011;4983;42.112;24.738;2023-06-05T03:14:55;1.90;;;1.30;;
9888;SDS011;4983;42.112;24.738;2023-06-05T03:17:22;1.83;;;1.30;;
9888;SDS011;4983;42.112;24.738;2023-06-05T03:19:49;2.50;;;1.40;;
9888;SDS011;4983;42.112;24.738;2023-06-05T03:22:16;1.67;;;1.40;;
9888;SDS011;4983;42.112;24.738;2023-06-05T03:24:44;1.60;;;1.23;;
9888;SDS011;4983;42.112;24.738;2023-06-05T03:27:11;1.80;;;1.30;;
9888;SDS011;4983;42.112;24.738;2023-06-05T03:29:38;6.83;;;1.70;;
9888;SDS011;4983;42.112;24.738;2023-06-05T03:32:05;2.77;;;1.13;;
9888;SDS011;4983;42.112;24.738;2023-06-05T03:34:31;3.27;;;1.47;;
9888;SDS011;4983;42.112;24.738;2023-06-05T03:37:01;4.27;;;1.20;;
9888;SDS011;4983;42.112;24.738;2023-06-05T03:39:28;2.47;;;1.30;;
9888;SDS011;4983;42.112;24.738;2023-06-05T03:41:57;2.70;;;1.60;;
9888;SDS011;4983;42.112;24.738;2023-06-05T03:44:23;4.53;;;1.60;;
9888;SDS011;4983;42.112;24.738;2023-06-05T03:46:50;4.37;;;1.73;;
9888;SDS011;4983;42.112;24.738;2023-06-05T03:49:17;2.47;;;1.47;;
9888;SDS011;4983;42.112;24.738;2023-06-05T03:51:45;4.87;;;1.60;;
9888;SDS011;4983;42.112;24.738;2023-06-05T03:54:11;2.77;;;1.70;;
9888;SDS011;4983;42.112;24.738;2023-06-05T03:56:38;3.60;;;1.83;;
9888;SDS011;4983;42.112;24.738;2023-06-05T03:59:09;3.50;;;1.73;;
9888;SDS011;4983;42.112;24.738;2023-06-05T04:01:43;4.03;;;1.67;;
9888;SDS011;4983;42.112;24.738;2023-06-05T04:04:10;3.37;;;1.80;;
9888;SDS011;4983;42.112;24.738;2023-06-05T04:06:37;1.77;;;1.53;;
9888;SDS011;4983;42.112;24.738;2023-06-05T04:09:05;5.33;;;2.90;;
9888;SDS011;4983;42.112;24.738;2023-06-05T04:11:36;4.07;;;2.10;;
9888;SDS011;4983;42.112;24.738;2023-06-05T04:14:03;3.27;;;2.13;;
9888;SDS011;4983;42.112;24.738;2023-06-05T04:16:31;2.70;;;2.00;;
9888;SDS011;4983;42.112;24.738;2023-06-05T04:18:59;4.70;;;2.73;;
9888;SDS011;4983;42.112;24.738;2023-06-05T04:21:26;3.23;;;2.40;;
9888;SDS011;4983;42.112;24.738;2023-06-05T04:23:52;2.43;;;2.23;;
9888;SDS011;4983;42.112;24.738;2023-06-05T04:26:19;3.53;;;2.30;;
9888;SDS011;4983;42.112;24.738;2023-06-05T04:28:46;5.97;;;2.33;;
9888;SDS011;4983;42.112;24.738;2023-06-05T04:31:16;4.37;;;2.00;;
9888;SDS011;4983;42.112;24.738;2023-06-05T04:33:46;7.00;;;2.73;;
9888;SDS011;4983;42.112;24.738;2023-06-05T04:36:13;4.07;;;1.93;;
9888;SDS011;4983;42.112;24.738;2023-06-05T04:38:39;2.90;;;2.30;;
9888;SDS011;4983;42.112;24.738;2023-06-05T04:41:06;2.57;;;2.17;;
9888;SDS011;4983;42.112;24.738;2023-06-05T04:43:33;2.27;;;1.57;;
9888;SDS011;4983;42.112;24.738;2023-06-05T04:46:00;3.03;;;1.73;;
9888;SDS011;4983;42.112;24.738;2023-06-05T04:48:27;5.40;;;2.17;;
9888;SDS011;4983;42.112;24.738;2023-06-05T04:50:56;5.53;;;2.07;;
9888;SDS011;4983;42.112;24.738;2023-06-05T04:53:23;3.23;;;1.87;;
9888;SDS011;4983;42.112;24.738;2023-06-05T04:55:50;3.80;;;2.07;;
9888;SDS011;4983;42.112;24.738;2023-06-05T04:58:18;2.93;;;1.90;;
9888;SDS011;4983;42.112;24.738;2023-06-05T05:00:45;4.90;;;2.20;;
9888;SDS011;4983;42.112;24.738;2023-06-05T05:03:14;2.40;;;2.00;;
9888;SDS011;4983;42.112;24.738;2023-06-05T05:05:42;2.23;;;1.80;;
9888;SDS011;4983;42.112;24.738;2023-06-05T05:08:10;3.57;;;2.13;;
9888;SDS011;4983;42.112;24.738;2023-06-05T05:10:37;3.00;;;2.23;;
9888;SDS011;4983;42.112;24.738;2023-06-05T05:13:04;5.83;;;2.20;;
9888;SDS011;4983;42.112;24.738;2023-06-05T05:15:30;5.00;;;2.03;;
9888;SDS011;4983;42.112;24.738;2023-06-05T05:17:59;6.47;;;2.07;;
9888;SDS011;4983;42.112;24.738;2023-06-05T05:20:29;3.70;;;2.33;;
9888;SDS011;4983;42.112;24.738;2023-06-05T05:22:58;4.67;;;2.27;;
9888;SDS011;4983;42.112;24.738;2023-06-05T05:25:27;4.87;;;2.20;;
9888;SDS011;4983;42.112;24.738;2023-06-05T05:27:53;4.43;;;2.37;;
9888;SDS011;4983;42.112;24.738;2023-06-05T05:30:20;3.50;;;2.47;;
9888;SDS011;4983;42.112;24.738;2023-06-05T05:32:47;2.30;;;2.07;;
9888;SDS011;4983;42.112;24.738;2023-06-05T05:35:13;4.47;;;2.20;;
9888;SDS011;4983;42.112;24.738;2023-06-05T05:37:40;3.83;;;2.60;;
9888;SDS011;4983;42.112;24.738;2023-06-05T05:40:07;6.20;;;2.53;;
9888;SDS011;4983;42.112;24.738;2023-06-05T05:42:37;3.27;;;1.97;;
9888;SDS011;4983;42.112;24.738;2023-06-05T05:45:04;3.93;;;2.43;;
9888;SDS011;4983;42.112;24.738;2023-06-05T05:47:31;6.17;;;2.57;;
9888;SDS011;4983;42.112;24.738;2023-06-05T05:49:58;5.53;;;2.73;;
9888;SDS011;4983;42.112;24.738;2023-06-05T05:52:25;2.63;;;2.30;;
9888;SDS011;4983;42.112;24.738;2023-06-05T05:54:51;5.10;;;2.57;;
9888;SDS011;4983;42.112;24.738;2023-06-05T05:57:18;6.90;;;2.77;;
9888;SDS011;4983;42.112;24.738;2023-06-05T05:59:46;4.80;;;2.60;;
9888;SDS011;4983;42.112;24.738;2023-06-05T06:02:13;2.60;;;2.23;;
9888;SDS011;4983;42.112;24.738;2023-06-05T06:04:40;7.43;;;2.87;;
9888;SDS011;4983;42.112;24.738;2023-06-05T06:07:09;5.37;;;2.90;;
9888;SDS011;4983;42.112;24.738;2023-06-05T06:09:36;5.10;;;3.00;;
9888;SDS011;4983;42.112;24.738;2023-06-05T06:12:03;7.40;;;2.73;;
9888;SDS011;4983;42.112;24.738;2023-06-05T06:14:31;6.83;;;2.73;;
9888;SDS011;4983;42.112;24.738;2023-06-05T06:16:59;5.90;;;4.13;;
9888;SDS011;4983;42.112;24.738;2023-06-05T06:19:26;7.73;;;3.47;;
9888;SDS011;4983;42.112;24.738;2023-06-05T06:21:53;7.67;;;4.20;;
9888;SDS011;4983;42.112;24.738;2023-06-05T06:24:19;7.57;;;4.30;;
9888;SDS011;4983;42.112;24.738;2023-06-05T06:26:47;10.87;;;5.43;;
9888;SDS011;4983;42.112;24.738;2023-06-05T06:29:17;9.90;;;5.17;;
9888;SDS011;4983;42.112;24.738;2023-06-05T06:31:44;8.40;;;5.23;;
9888;SDS011;4983;42.112;24.738;2023-06-05T06:34:12;12.37;;;6.50;;
9888;SDS011;4983;42.112;24.738;2023-06-05T06:36:39;10.63;;;5.60;;
9888;SDS011;4983;42.112;24.738;2023-06-05T06:39:09;12.23;;;6.33;;
9888;SDS011;4983;42.112;24.738;2023-06-05T06:41:35;12.00;;;5.97;;
9888;SDS011;4983;42.112;24.738;2023-06-05T06:44:03;11.20;;;6.23;;
9888;SDS011;4983;42.112;24.738;2023-06-05T06:46:29;8.83;;;5.00;;
9888;SDS011;4983;42.112;24.738;2023-06-05T06:48:57;10.67;;;6.37;;
9888;SDS011;4983;42.112;24.738;2023-06-05T06:51:25;10.23;;;5.40;;
9888;SDS011;4983;42.112;24.738;2023-06-05T06:53:51;11.03;;;5.60;;
9888;SDS011;4983;42.112;24.738;2023-06-05T06:56:18;13.70;;;5.97;;
9888;SDS011;4983;42.112;24.738;2023-06-05T06:58:45;12.47;;;6.43;;
9888;SDS011;4983;42.112;24.738;2023-06-05T07:01:11;10.30;;;5.87;;
9888;SDS011;4983;42.112;24.738;2023-06-05T07:03:39;8.97;;;5.40;;
9888;SDS011;4983;42.112;24.738;2023-06-05T07:06:06;14.33;;;6.63;;
9888;SDS011;4983;42.112;24.738;2023-06-05T07:08:34;14.73;;;6.43;;
9888;SDS011;4983;42.112;24.738;2023-06-05T07:11:00;9.67;;;6.23;;
9888;SDS011;4983;42.112;24.738;2023-06-05T07:13:27;11.53;;;6.47;;
9888;SDS011;4983;42.112;24.738;2023-06-05T07:15:54;13.93;;;6.73;;
9888;SDS011;4983;42.112;24.738;2023-06-05T07:18:21;20.90;;;7.27;;
9888;SDS011;4983;42.112;24.738;2023-06-05T07:20:47;10.53;;;6.73;;
9888;SDS011;4983;42.112;24.738;2023-06-05T07:23:14;17.83;;;7.43;;
9888;SDS011;4983;42.112;24.738;2023-06-05T07:25:44;11.70;;;6.00;;
9888;SDS011;4983;42.112;24.738;2023-06-05T07:28:11;13.33;;;6.60;;
9888;SDS011;4983;42.112;24.738;2023-06-05T07:30:38;11.50;;;6.40;;
9888;SDS011;4983;42.112;24.738;2023-06-05T07:33:08;12.60;;;6.47;;
9888;SDS011;4983;42.112;24.738;2023-06-05T07:35:36;11.83;;;6.70;;
9888;SDS011;4983;42.112;24.738;2023-06-05T07:38:03;21.63;;;7.97;;
9888;SDS011;4983;42.112;24.738;2023-06-05T07:40:29;14.97;;;6.80;;
9888;SDS011;4983;42.112;24.738;2023-06-05T07:42:57;12.63;;;6.60;;
9888;SDS011;4983;42.112;24.738;2023-06-05T07:45:24;14.93;;;7.43;;
9888;SDS011;4983;42.112;24.738;2023-06-05T07:47:51;14.47;;;7.33;;
9888;SDS011;4983;42.112;24.738;2023-06-05T07:50:17;12.73;;;6.73;;
9888;SDS011;4983;42.112;24.738;2023-06-05T07:52:44;11.93;;;6.80;;
9888;SDS011;4983;42.112;24.738;2023-06-05T07:55:11;11.77;;;6.23;;
9888;SDS011;4983;42.112;24.738;2023-06-05T07:57:39;15.93;;;7.03;;
9888;SDS011;4983;42.112;24.738;2023-06-05T08:00:07;10.83;;;6.43;;
9888;SDS011;4983;42.112;24.738;2023-06-05T08:02:36;10.90;;;6.37;;
9888;SDS011;4983;42.112;24.738;2023-06-05T08:05:04;12.10;;;7.03;;
9888;SDS011;4983;42.112;24.738;2023-06-05T08:07:33;13.53;;;6.53;;
9888;SDS011;4983;42.112;24.738;2023-06-05T08:10:00;10.17;;;6.50;;
9888;SDS011;4983;42.112;24.738;2023-06-05T08:12:27;9.73;;;6.13;;
9888;SDS011;4983;42.112;24.738;2023-06-05T08:14:54;10.87;;;6.00;;
9888;SDS011;4983;42.112;24.738;2023-06-05T08:17:22;9.00;;;6.13;;
9888;SDS011;4983;42.112;24.738;2023-06-05T08:19:49;11.33;;;5.67;;
9888;SDS011;4983;42.112;24.738;2023-06-05T08:22:15;9.80;;;5.27;;
9888;SDS011;4983;42.112;24.738;2023-06-05T08:24:43;10.87;;;5.27;;
9888;SDS011;4983;42.112;24.738;2023-06-05T08:27:10;7.00;;;5.03;;
9888;SDS011;4983;42.112;24.738;2023-06-05T08:29:36;8.27;;;5.80;;
9888;SDS011;4983;42.112;24.738;2023-06-05T08:32:03;7.07;;;5.53;;
9888;SDS011;4983;42.112;24.738;2023-06-05T08:34:32;11.00;;;6.20;;
9888;SDS011;4983;42.112;24.738;2023-06-05T08:36:59;8.63;;;5.93;;
9888;SDS011;4983;42.112;24.738;2023-06-05T08:39:26;8.70;;;5.73;;
9888;SDS011;4983;42.112;24.738;2023-06-05T08:41:57;9.37;;;5.70;;
9888;SDS011;4983;42.112;24.738;2023-06-05T08:44:25;8.77;;;5.20;;
9888;SDS011;4983;42.112;24.738;2023-06-05T08:46:52;8.80;;;5.00;;
9888;SDS011;4983;42.112;24.738;2023-06-05T08:49:20;7.97;;;4.90;;
9888;SDS011;4983;42.112;24.738;2023-06-05T08:51:50;9.77;;;5.80;;
9888;SDS011;4983;42.112;24.738;2023-06-05T08:54:17;6.57;;;5.03;;
9888;SDS011;4983;42.112;24.738;2023-06-05T08:56:45;7.27;;;5.33;;
9888;SDS011;4983;42.112;24.738;2023-06-05T08:59:13;7.90;;;5.50;;
9888;SDS011;4983;42.112;24.738;2023-06-05T09:01:41;7.17;;;5.23;;
9888;SDS011;4983;42.112;24.738;2023-06-05T09:04:08;6.47;;;4.67;;
9888;SDS011;4983;42.112;24.738;2023-06-05T09:06:35;7.23;;;4.63;;
9888;SDS011;4983;42.112;24.738;2023-06-05T09:09:06;6.83;;;4.40;;
9888;SDS011;4983;42.112;24.738;2023-06-05T09:11:33;15.67;;;5.40;;
9888;SDS011;4983;42.112;24.738;2023-06-05T09:14:00;6.80;;;4.50;;
9888;SDS011;4983;42.112;24.738;2023-06-05T09:16:34;6.47;;;4.10;;
9888;SDS011;4983;42.112;24.738;2023-06-05T09:19:01;6.00;;;3.97;;
9888;SDS011;4983;42.112;24.738;2023-06-05T09:21:29;7.47;;;4.40;;
9888;SDS011;4983;42.112;24.738;2023-06-05T09:24:11;7.93;;;4.20;;
9888;SDS011;4983;42.112;24.738;2023-06-05T09:26:53;6.47;;;4.63;;
9888;SDS011;4983;42.112;24.738;2023-06-05T09:29:24;7.57;;;4.47;;
9888;SDS011;4983;42.112;24.738;2023-06-05T09:31:51;7.67;;;4.43;;
9888;SDS011;4983;42.112;24.738;2023-06-05T09:34:25;8.80;;;5.03;;
9888;SDS011;4983;42.112;24.738;2023-06-05T09:36:52;4.97;;;3.50;;
9888;SDS011;4983;42.112;24.738;2023-06-05T09:39:21;4.57;;;3.83;;
9888;SDS011;4983;42.112;24.738;2023-06-05T09:41:50;7.80;;;3.90;;
9888;SDS011;4983;42.112;24.738;2023-06-05T09:44:17;7.47;;;4.10;;
9888;SDS011;4983;42.112;24.738;2023-06-05T09:46:53;5.57;;;3.63;;
9888;SDS011;4983;42.112;24.738;2023-06-05T09:49:21;5.53;;;3.83;;
9888;SDS011;4983;42.112;24.738;2023-06-05T09:51:48;4.77;;;3.30;;
9888;SDS011;4983;42.112;24.738;2023-06-05T09:54:15;4.03;;;3.17;;
9888;SDS011;4983;42.112;24.738;2023-06-05T09:56:46;4.37;;;3.40;;
9888;SDS011;4983;42.112;24.738;2023-06-05T09:59:18;6.50;;;3.57;;
9888;SDS011;4983;42.112;24.738;2023-06-05T10:01:46;5.77;;;3.00;;
9888;SDS011;4983;42.112;24.738;2023-06-05T10:04:14;7.93;;;3.03;;
9888;SDS011;4983;42.112;24.738;2023-06-05T10:06:42;6.60;;;2.93;;
9888;SDS011;4983;42.112;24.738;2023-06-05T10:09:09;3.90;;;3.20;;
9888;SDS011;4983;42.112;24.738;2023-06-05T10:11:36;9.30;;;4.07;;
9888;SDS011;4983;42.112;24.738;2023-06-05T10:14:05;3.27;;;2.40;;
9888;SDS011;4983;42.112;24.738;2023-06-05T10:16:34;12.07;;;4.30;;
9888;SDS011;4983;42.112;24.738;2023-06-05T10:19:01;3.27;;;2.97;;
9888;SDS011;4983;42.112;24.738;2023-06-05T10:21:29;8.60;;;2.80;;
9888;SDS011;4983;42.112;24.738;2023-06-05T10:23:57;3.60;;;3.10;;
9888;SDS011;4983;42.112;24.738;2023-06-05T10:26:30;4.07;;;2.90;;
9888;SDS011;4983;42.112;24.738;2023-06-05T10:29:04;3.70;;;2.60;;
9888;SDS011;4983;42.112;24.738;2023-06-05T10:31:35;3.03;;;2.73;;
9888;SDS011;4983;42.112;24.738;2023-06-05T10:34:06;3.43;;;2.53;;
9888;SDS011;4983;42.112;24.738;2023-06-05T10:36:45;4.67;;;2.40;;
9888;SDS011;4983;42.112;24.738;2023-06-05T10:39:14;2.73;;;2.30;;
9888;SDS011;4983;42.112;24.738;2023-06-05T10:41:41;2.03;;;1.83;;
9888;SDS011;4983;42.112;24.738;2023-06-05T10:44:08;2.90;;;2.37;;
9888;SDS011;4983;42.112;24.738;2023-06-05T10:46:36;2.77;;;2.40;;
9888;SDS011;4983;42.112;24.738;2023-06-05T10:49:09;3.70;;;2.20;;
9888;SDS011;4983;42.112;24.738;2023-06-05T10:51:38;7.60;;;2.27;;
9888;SDS011;4983;42.112;24.738;2023-06-05T10:54:06;2.17;;;1.97;;
9888;SDS011;4983;42.112;24.738;2023-06-05T10:56:52;4.53;;;2.00;;
9888;SDS011;4983;42.112;24.738;2023-06-05T10:59:19;2.53;;;2.10;;
9888;SDS011;4983;42.112;24.738;2023-06-05T11:07:27;2.73;;;2.10;;
9888;SDS011;4983;42.112;24.738;2023-06-05T11:10:07;2.70;;;2.00;;
9888;SDS011;4983;42.112;24.738;2023-06-05T11:15:34;2.93;;;2.40;;
9888;SDS011;4983;42.112;24.738;2023-06-05T11:20:50;2.50;;;2.03;;
9888;SDS011;4983;42.112;24.738;2023-06-05T11:23:18;3.10;;;2.13;;
9888;SDS011;4983;42.112;24.738;2023-06-05T11:25:45;2.10;;;1.70;;
9888;SDS011;4983;42.112;24.738;2023-06-05T11:28:12;3.13;;;1.90;;
9888;SDS011;4983;42.112;24.738;2023-06-05T11:30:39;2.87;;;1.90;;
9888;SDS011;4983;42.112;24.738;2023-06-05T11:33:08;3.00;;;1.70;;
9888;SDS011;4983;42.112;24.738;2023-06-05T11:35:37;5.80;;;2.30;;
9888;SDS011;4983;42.112;24.738;2023-06-05T11:38:07;4.37;;;2.27;;
9888;SDS011;4983;42.112;24.738;2023-06-05T11:40:36;2.43;;;1.87;;
9888;SDS011;4983;42.112;24.738;2023-06-05T11:43:03;3.57;;;1.87;;
9888;SDS011;4983;42.112;24.738;2023-06-05T11:45:31;5.50;;;1.97;;
9888;SDS011;4983;42.112;24.738;2023-06-05T11:48:05;3.10;;;1.70;;
9888;SDS011;4983;42.112;24.738;2023-06-05T11:50:32;2.97;;;2.00;;
9888;SDS011;4983;42.112;24.738;2023-06-05T11:53:03;3.10;;;2.00;;
9888;SDS011;4983;42.112;24.738;2023-06-05T11:55:30;2.07;;;1.73;;
9888;SDS011;4983;42.112;24.738;2023-06-05T11:58:10;1.90;;;1.70;;
9888;SDS011;4983;42.112;24.738;2023-06-05T12:00:37;2.10;;;1.70;;
9888;SDS011;4983;42.112;24.738;2023-06-05T12:03:04;1.93;;;1.70;;
9888;SDS011;4983;42.112;24.738;2023-06-05T12:05:32;2.10;;;1.60;;
9888;SDS011;4983;42.112;24.738;2023-06-05T12:10:44;4.33;;;1.70;;
9888;SDS011;4983;42.112;24.738;2023-06-05T12:13:12;2.73;;;2.17;;
9888;SDS011;4983;42.112;24.738;2023-06-05T12:15:40;2.13;;;1.80;;
9888;SDS011;4983;42.112;24.738;2023-06-05T12:18:08;3.63;;;2.03;;
9888;SDS011;4983;42.112;24.738;2023-06-05T12:20:37;3.23;;;1.60;;
9888;SDS011;4983;42.112;24.738;2023-06-05T12:23:06;3.63;;;2.03;;
9888;SDS011;4983;42.112;24.738;2023-06-05T12:25:33;5.77;;;1.97;;
9888;SDS011;4983;42.112;24.738;2023-06-05T12:28:01;2.40;;;1.77;;
9888;SDS011;4983;42.112;24.738;2023-06-05T12:30:40;2.33;;;1.90;;
9888;SDS011;4983;42.112;24.738;2023-06-05T12:33:07;2.53;;;1.70;;
9888;SDS011;4983;42.112;24.738;2023-06-05T12:35:35;1.93;;;1.67;;
9888;SDS011;4983;42.112;24.738;2023-06-05T12:38:02;2.90;;;1.57;;
9888;SDS011;4983;42.112;24.738;2023-06-05T12:40:28;4.93;;;2.03;;
9888;SDS011;4983;42.112;24.738;2023-06-05T12:42:55;2.20;;;1.60;;
9888;SDS011;4983;42.112;24.738;2023-06-05T12:45:22;3.43;;;1.80;;
9888;SDS011;4983;42.112;24.738;2023-06-05T12:47:51;7.07;;;2.80;;
9888;SDS011;4983;42.112;24.738;2023-06-05T12:50:18;2.13;;;1.63;;
9888;SDS011;4983;42.112;24.738;2023-06-05T12:52:45;1.70;;;1.60;;
9888;SDS011;4983;42.112;24.738;2023-06-05T12:55:11;7.67;;;1.50;;
9888;SDS011;4983;42.112;24.738;2023-06-05T12:57:38;2.70;;;1.70;;
9888;SDS011;4983;42.112;24.738;2023-06-05T13:00:06;3.30;;;1.77;;
9888;SDS011;4983;42.112;24.738;2023-06-05T13:02:36;1.97;;;1.60;;
9888;SDS011;4983;42.112;24.738;2023-06-05T13:05:06;4.40;;;2.10;;
9888;SDS011;4983;42.112;24.738;2023-06-05T13:07:32;2.30;;;1.60;;
9888;SDS011;4983;42.112;24.738;2023-06-05T13:09:59;5.30;;;2.00;;
9888;SDS011;4983;42.112;24.738;2023-06-05T13:12:26;3.53;;;1.57;;
9888;SDS011;4983;42.112;24.738;2023-06-05T13:14:52;2.43;;;1.80;;
9888;SDS011;4983;42.112;24.738;2023-06-05T13:17:20;2.40;;;1.60;;
9888;SDS011;4983;42.112;24.738;2023-06-05T13:19:48;7.90;;;2.20;;
9888;SDS011;4983;42.112;24.738;2023-06-05T13:22:16;2.97;;;1.70;;
9888;SDS011;4983;42.112;24.738;2023-06-05T13:24:42;1.77;;;1.67;;
9888;SDS011;4983;42.112;24.738;2023-06-05T13:27:09;8.73;;;2.63;;
9888;SDS011;4983;42.112;24.738;2023-06-05T13:29:36;2.33;;;1.63;;
9888;SDS011;4983;42.112;24.738;2023-06-05T13:32:03;2.43;;;1.60;;
9888;SDS011;4983;42.112;24.738;2023-06-05T13:34:30;3.57;;;1.80;;
9888;SDS011;4983;42.112;24.738;2023-06-05T13:36:59;1.40;;;1.30;;
9888;SDS011;4983;42.112;24.738;2023-06-05T13:39:27;2.03;;;1.77;;
9888;SDS011;4983;42.112;24.738;2023-06-05T13:41:54;3.27;;;1.70;;
9888;SDS011;4983;42.112;24.738;2023-06-05T13:44:21;1.63;;;1.40;;
9888;SDS011;4983;42.112;24.738;2023-06-05T13:46:47;3.20;;;1.70;;
9888;SDS011;4983;42.112;24.738;2023-06-05T13:49:14;5.27;;;1.83;;
9888;SDS011;4983;42.112;24.738;2023-06-05T13:51:41;2.30;;;1.77;;
9888;SDS011;4983;42.112;24.738;2023-06-05T13:54:07;4.87;;;1.70;;
9888;SDS011;4983;42.112;24.738;2023-06-05T13:56:35;5.40;;;1.70;;
9888;SDS011;4983;42.112;24.738;2023-06-05T13:59:02;2.57;;;1.57;;
9888;SDS011;4983;42.112;24.738;2023-06-05T14:01:29;2.60;;;1.73;;
9888;SDS011;4983;42.112;24.738;2023-06-05T14:03:56;5.13;;;1.70;;
9888;SDS011;4983;42.112;24.738;2023-06-05T14:06:22;2.23;;;2.00;;
9888;SDS011;4983;42.112;24.738;2023-06-05T14:08:49;4.23;;;2.00;;
9888;SDS011;4983;42.112;24.738;2023-06-05T14:11:16;3.07;;;1.33;;
9888;SDS011;4983;42.112;24.738;2023-06-05T14:13:44;3.27;;;2.03;;
9888;SDS011;4983;42.112;24.738;2023-06-05T14:16:11;2.30;;;1.53;;
9888;SDS011;4983;42.112;24.738;2023-06-05T14:18:40;1.43;;;1.33;;
9888;SDS011;4983;42.112;24.738;2023-06-05T14:21:06;3.40;;;1.70;;
9888;SDS011;4983;42.112;24.738;2023-06-05T14:23:33;4.30;;;1.70;;
9888;SDS011;4983;42.112;24.738;2023-06-05T14:26:00;2.63;;;1.60;;
9888;SDS011;4983;42.112;24.738;2023-06-05T14:28:26;9.80;;;1.90;;
9888;SDS011;4983;42.112;24.738;2023-06-05T14:30:55;3.80;;;1.77;;
9888;SDS011;4983;42.112;24.738;2023-06-05T14:33:21;3.30;;;1.63;;
9888;SDS011;4983;42.112;24.738;2023-06-05T14:35:48;3.80;;;1.60;;
9888;SDS011;4983;42.112;24.738;2023-06-05T14:38:16;1.80;;;1.60;;
9888;SDS011;4983;42.112;24.738;2023-06-05T14:40:42;2.13;;;1.60;;
9888;SDS011;4983;42.112;24.738;2023-06-05T14:43:09;3.17;;;1.93;;
9888;SDS011;4983;42.112;24.738;2023-06-05T14:45:36;5.40;;;1.80;;
9888;SDS011;4983;42.112;24.738;2023-06-05T14:48:04;3.07;;;1.80;;
9888;SDS011;4983;42.112;24.738;2023-06-05T14:50:32;4.70;;;1.93;;
9888;SDS011;4983;42.112;24.738;2023-06-05T14:52:59;2.80;;;1.63;;
9888;SDS011;4983;42.112;24.738;2023-06-05T14:55:26;2.30;;;1.70;;
9888;SDS011;4983;42.112;24.738;2023-06-05T14:57:52;1.93;;;1.60;;
9888;SDS011;4983;42.112;24.738;2023-06-05T15:00:19;1.80;;;1.40;;
9888;SDS011;4983;42.112;24.738;2023-06-05T15:02:45;5.97;;;1.60;;
9888;SDS011;4983;42.112;24.738;2023-06-05T15:05:14;1.57;;;1.40;;
9888;SDS011;4983;42.112;24.738;2023-06-05T15:07:41;2.40;;;1.70;;
9888;SDS011;4983;42.112;24.738;2023-06-05T15:10:08;7.90;;;2.30;;
9888;SDS011;4983;42.112;24.738;2023-06-05T15:12:39;3.60;;;1.43;;
9888;SDS011;4983;42.112;24.738;2023-06-05T15:15:06;2.93;;;1.47;;
9888;SDS011;4983;42.112;24.738;2023-06-05T15:17:33;2.53;;;1.20;;